createdAt,value
2018-09-06T00:00:38.388Z,7.03
2018-09-06T00:05:42.138Z,6.60
2018-09-06T00:10:46.075Z,7.10
2018-09-06T00:15:49.720Z,6.30
2018-09-06T00:20:53.648Z,5.83
2018-09-06T00:25:57.550Z,6.37
2018-09-06T00:31:01.314Z,7.43
2018-09-06T00:36:05.260Z,7.13
2018-09-06T00:41:09.184Z,6.50
2018-09-06T00:46:12.988Z,7.53
2018-09-06T00:51:16.754Z,6.97
2018-09-06T00:56:20.616Z,7.00
2018-09-06T01:01:24.215Z,7.17
2018-09-06T01:06:28.036Z,6.47
2018-09-06T01:11:32.299Z,6.90
2018-09-06T01:16:36.083Z,6.40
2018-09-06T01:21:39.829Z,6.87
2018-09-06T01:26:44.050Z,7.20
2018-09-06T01:31:47.692Z,6.70
2018-09-06T01:36:51.625Z,7.30
2018-09-06T01:41:55.797Z,6.60
2018-09-06T01:46:59.668Z,6.77
2018-09-06T01:52:03.408Z,7.30
2018-09-06T01:57:07.191Z,7.20
2018-09-06T02:02:11.058Z,6.90
2018-09-06T02:07:15.018Z,6.80
2018-09-06T02:12:19.050Z,6.90
2018-09-06T02:17:23.094Z,6.70
2018-09-06T02:22:27.013Z,7.30
2018-09-06T02:27:30.918Z,7.60
2018-09-06T02:32:34.762Z,7.20
2018-09-06T02:37:38.646Z,7.00
2018-09-06T02:42:42.695Z,7.07
2018-09-06T02:47:58.671Z,7.17
2018-09-06T02:53:02.741Z,7.67
2018-09-06T02:58:06.630Z,6.70
2018-09-06T03:03:10.368Z,7.70
2018-09-06T03:08:14.482Z,8.03
2018-09-06T03:13:18.354Z,8.00
2018-09-06T03:18:22.080Z,7.57
2018-09-06T03:23:26.221Z,7.03
2018-09-06T03:28:29.956Z,7.50
2018-09-06T03:33:33.916Z,7.67
2018-09-06T03:38:37.590Z,7.57
2018-09-06T03:43:41.502Z,7.87
2018-09-06T03:48:45.395Z,8.00
2018-09-06T03:53:49.155Z,8.10
2018-09-06T03:58:56.776Z,9.03
2018-09-06T04:04:00.698Z,8.43
2018-09-06T04:09:23.760Z,7.90
2018-09-06T04:14:27.599Z,8.60
2018-09-06T04:24:59.804Z,7.87
2018-09-06T04:30:04.098Z,7.60
2018-09-06T04:35:07.991Z,7.40
2018-09-06T04:40:11.751Z,7.80
2018-09-06T04:45:15.752Z,8.23
2018-09-06T04:50:19.674Z,8.13
2018-09-06T04:55:23.723Z,8.10
2018-09-06T05:00:27.467Z,9.17
2018-09-06T05:05:31.350Z,10.20
2018-09-06T05:10:35.586Z,11.70
2018-09-06T05:15:39.528Z,11.37
2018-09-06T05:20:43.407Z,11.17
2018-09-06T05:25:47.232Z,10.03
2018-09-06T05:30:51.094Z,13.53
2018-09-06T05:35:54.821Z,11.70
2018-09-06T05:46:28.372Z,12.80
2018-09-06T05:51:32.960Z,13.40
2018-09-06T05:56:36.900Z,14.97
2018-09-06T06:01:41.305Z,18.53
2018-09-06T06:06:45.342Z,21.80
2018-09-06T06:11:49.924Z,22.63
2018-09-06T06:16:53.668Z,19.10
2018-09-06T06:21:57.348Z,23.70
2018-09-06T06:27:01.167Z,23.47
2018-09-06T06:32:04.960Z,23.63
2018-09-06T06:37:08.804Z,20.83
2018-09-06T06:42:12.666Z,21.73
2018-09-06T06:47:16.522Z,25.13
2018-09-06T06:52:20.416Z,27.60
2018-09-06T06:57:24.395Z,26.97
2018-09-06T07:02:28.389Z,24.57
2018-09-06T07:07:32.140Z,26.47
2018-09-06T07:12:35.918Z,26.30
2018-09-06T07:17:39.656Z,25.37
2018-09-06T07:22:43.938Z,24.50
2018-09-06T07:27:47.627Z,26.20
2018-09-06T07:32:54.380Z,26.23
2018-09-06T07:38:01.338Z,25.70
2018-09-06T07:43:05.452Z,25.03
2018-09-06T07:48:09.309Z,25.53
2018-09-06T07:53:13.100Z,26.33
2018-09-06T08:03:45.325Z,27.07
2018-09-06T08:08:49.607Z,25.30
2018-09-06T08:13:53.588Z,24.00
2018-09-06T08:29:59.164Z,25.47
2018-09-06T08:35:03.422Z,25.00
2018-09-06T08:40:07.216Z,27.53
2018-09-06T08:45:10.932Z,27.37
2018-09-06T08:50:14.802Z,26.73
2018-09-06T08:55:18.830Z,26.53
2018-09-06T09:00:23.616Z,26.07
2018-09-06T09:05:27.692Z,26.77
2018-09-06T09:10:31.969Z,24.87
2018-09-06T09:15:35.976Z,25.97
2018-09-06T09:20:40.147Z,26.67
2018-09-06T09:25:44.132Z,27.23
2018-09-06T09:30:48.243Z,26.47
2018-09-06T09:35:52.057Z,26.53
2018-09-06T09:40:56.048Z,26.43
2018-09-06T09:51:02.891Z,27.50
2018-09-06T09:56:06.846Z,26.37
2018-09-06T10:01:10.598Z,26.57
2018-09-06T10:06:21.606Z,26.40
2018-09-06T10:11:25.973Z,27.67
2018-09-06T10:16:29.887Z,26.40
2018-09-06T10:21:33.744Z,26.30
2018-09-06T10:26:37.778Z,26.67
2018-09-06T10:31:41.705Z,26.87
2018-09-06T10:36:45.892Z,26.57
2018-09-06T10:41:49.767Z,27.00
2018-09-06T10:46:53.850Z,25.30
2018-09-06T10:51:57.937Z,24.93
2018-09-06T10:57:01.927Z,23.83
2018-09-06T11:02:05.613Z,22.33
2018-09-06T11:07:10.189Z,22.27
2018-09-06T11:12:13.889Z,20.87
2018-09-06T11:17:18.249Z,21.90
2018-09-06T11:22:22.953Z,22.90
2018-09-06T11:27:26.686Z,23.17
2018-09-06T11:32:31.235Z,22.80
2018-09-06T11:37:34.858Z,17.73
2018-09-06T11:42:38.654Z,15.57
2018-09-06T11:47:43.086Z,15.43
2018-09-06T11:52:47.140Z,15.67
2018-09-06T11:57:51.169Z,15.47
2018-09-06T12:02:55.335Z,15.37
2018-09-06T12:07:59.017Z,15.30
2018-09-06T12:13:02.972Z,16.50
2018-09-06T12:18:15.082Z,15.27
2018-09-06T12:23:19.188Z,15.60
2018-09-06T12:28:30.281Z,15.30
2018-09-06T12:33:34.744Z,17.27
2018-09-06T12:38:38.545Z,16.50
2018-09-06T12:43:42.243Z,19.10
2018-09-06T12:48:46.380Z,20.30
2018-09-06T12:53:50.730Z,20.27
2018-09-06T12:59:16.873Z,21.70
2018-09-06T13:04:21.049Z,22.10
2018-09-06T13:09:44.162Z,24.13
2018-09-06T13:14:48.241Z,21.73
2018-09-06T13:19:52.066Z,23.40
2018-09-06T13:24:55.715Z,24.03
2018-09-06T13:29:59.489Z,24.47
2018-09-06T13:35:03.444Z,23.03
2018-09-06T13:40:07.390Z,22.90
2018-09-06T13:45:11.396Z,22.73
2018-09-06T13:50:15.311Z,21.97
2018-09-06T13:55:19.404Z,25.87
2018-09-06T14:00:23.273Z,24.47
2018-09-06T14:05:27.321Z,25.10
2018-09-06T14:10:31.246Z,24.50
2018-09-06T14:15:35.763Z,28.10
2018-09-06T14:20:39.740Z,27.37
2018-09-06T14:25:43.452Z,28.63
2018-09-06T14:30:47.284Z,29.37
2018-09-06T14:35:51.112Z,29.97
2018-09-06T14:40:55.294Z,28.83
2018-09-06T14:45:59.031Z,28.93
2018-09-06T14:51:03.124Z,30.53
2018-09-06T14:56:07.625Z,30.60
2018-09-06T15:01:11.943Z,30.23
2018-09-06T15:06:16.369Z,33.20
2018-09-06T15:11:20.529Z,34.00
2018-09-06T15:16:24.406Z,35.63
2018-09-06T15:21:28.256Z,34.50
2018-09-06T15:26:32.293Z,39.47
2018-09-06T15:31:36.011Z,38.80
2018-09-06T15:36:40.071Z,43.10
2018-09-06T15:41:44.293Z,43.20
2018-09-06T15:46:48.285Z,44.47
2018-09-06T15:51:52.043Z,46.27
2018-09-06T15:56:56.165Z,47.13
2018-09-06T16:02:00.080Z,46.23
2018-09-06T16:07:03.887Z,45.60
2018-09-06T16:12:07.880Z,44.40
2018-09-06T16:17:12.323Z,47.10
2018-09-06T16:22:16.275Z,45.83
2018-09-06T16:27:20.274Z,46.50
2018-09-06T16:32:24.122Z,44.47
2018-09-06T16:37:28.024Z,45.70
2018-09-06T16:42:31.986Z,45.60
2018-09-06T16:47:35.669Z,43.63
2018-09-06T16:52:39.789Z,44.90
2018-09-06T16:57:45.611Z,47.00
2018-09-06T17:02:49.346Z,43.37
2018-09-06T17:08:02.692Z,45.47
2018-09-06T17:13:07.184Z,56.67
2018-09-06T17:18:11.140Z,54.60
2018-09-06T17:23:15.178Z,53.83
2018-09-06T17:28:19.052Z,49.27
2018-09-06T17:33:23.301Z,48.97
2018-09-06T17:38:27.366Z,47.53
2018-09-06T17:43:31.329Z,48.37
2018-09-06T17:48:35.393Z,45.93
2018-09-06T17:53:39.825Z,49.17
2018-09-06T17:58:43.501Z,48.80
2018-09-06T18:03:47.648Z,56.20
2018-09-06T18:08:51.741Z,54.27
2018-09-06T18:13:55.983Z,51.03
2018-09-06T18:19:05.278Z,49.37
2018-09-06T18:24:09.244Z,47.03
2018-09-06T18:34:40.757Z,42.70
2018-09-06T18:39:44.508Z,40.80
2018-09-06T18:44:48.481Z,39.77
2018-09-06T18:49:52.403Z,40.30
2018-09-06T18:54:56.475Z,40.87
2018-09-06T19:00:03.179Z,42.57
2018-09-06T19:05:07.631Z,41.97
2018-09-06T19:10:11.355Z,43.80
2018-09-06T19:15:15.179Z,41.77
2018-09-06T19:20:19.410Z,39.17
2018-09-06T19:25:24.043Z,35.07
2018-09-06T19:30:28.365Z,33.57
2018-09-06T19:35:32.419Z,23.67
2018-09-06T19:40:36.494Z,16.30
2018-09-06T19:45:40.200Z,11.40
2018-09-06T19:50:43.940Z,9.27
2018-09-06T19:55:47.960Z,9.57
2018-09-06T20:00:51.785Z,7.80
2018-09-06T20:05:55.637Z,7.23
2018-09-06T20:10:59.831Z,7.20
2018-09-06T20:16:03.714Z,6.73
2018-09-06T20:21:07.995Z,6.80
2018-09-06T20:26:11.747Z,6.20
2018-09-06T20:31:15.976Z,5.87
2018-09-06T20:36:19.955Z,6.30
2018-09-06T20:41:23.763Z,6.97
2018-09-06T20:46:27.594Z,6.93
2018-09-06T20:51:31.389Z,7.97
2018-09-06T20:56:35.370Z,7.70
2018-09-06T21:01:39.121Z,7.13
2018-09-06T21:06:43.020Z,7.87
2018-09-06T21:11:47.352Z,8.47
2018-09-06T21:16:51.744Z,8.90
2018-09-06T21:21:55.596Z,9.50
2018-09-06T21:27:00.898Z,7.97
2018-09-06T21:32:05.320Z,8.50
2018-09-06T21:37:09.040Z,8.40
2018-09-06T21:42:12.903Z,8.17
2018-09-06T21:47:17.020Z,8.57
2018-09-06T21:52:21.042Z,9.17
2018-09-06T21:57:24.924Z,9.60
2018-09-06T22:02:33.966Z,11.47
2018-09-06T22:07:38.055Z,12.60
2018-09-06T22:12:41.648Z,12.73
2018-09-06T22:17:45.712Z,13.03
2018-09-06T22:22:50.017Z,11.80
2018-09-06T22:27:53.638Z,12.53
2018-09-06T22:32:57.350Z,11.73
2018-09-06T22:38:01.543Z,13.73
2018-09-06T22:43:05.175Z,15.17
2018-09-06T22:53:56.420Z,16.53
2018-09-06T23:04:29.064Z,18.40
2018-09-06T23:09:34.123Z,18.70
2018-09-06T23:14:38.220Z,19.53
2018-09-06T23:19:41.927Z,20.20
2018-09-06T23:24:46.156Z,19.40
2018-09-06T23:29:50.291Z,19.00
2018-09-06T23:34:53.909Z,21.37
2018-09-06T23:39:57.768Z,21.93
2018-09-06T23:45:01.401Z,22.03
2018-09-06T23:50:05.500Z,21.77
2018-09-06T23:55:09.732Z,21.37
